createdAt,value
2023-02-19T00:02:12.775Z,42.95
2023-02-19T00:04:41.003Z,44.18
2023-02-19T00:07:07.952Z,46.90
2023-02-19T00:09:35.566Z,45.92
2023-02-19T00:12:03.454Z,50.45
2023-02-19T00:14:33.713Z,50.58
2023-02-19T00:17:02.220Z,57.03
2023-02-19T00:19:30.385Z,59.25
2023-02-19T00:24:35.872Z,50.05
2023-02-19T00:29:30.444Z,47.58
2023-02-19T00:34:24.717Z,44.90
2023-02-19T00:36:52.600Z,36.42
2023-02-19T00:39:23.411Z,34.98
2023-02-19T00:41:51.217Z,32.17
2023-02-19T00:44:18.426Z,30.23
2023-02-19T00:46:56.802Z,28.27
2023-02-19T00:49:24.614Z,24.87
2023-02-19T00:51:53.994Z,22.48
2023-02-19T00:54:26.828Z,20.50
2023-02-19T00:56:55.505Z,20.62
2023-02-19T00:59:23.519Z,21.52
2023-02-19T01:01:52.390Z,20.08
2023-02-19T01:04:20.224Z,19.20
2023-02-19T01:06:48.375Z,20.32
2023-02-19T01:09:16.108Z,19.15
2023-02-19T01:11:44.374Z,19.82
2023-02-19T01:14:13.339Z,18.55
2023-02-19T01:19:07.318Z,20.35
2023-02-19T01:21:35.092Z,20.75
2023-02-19T01:24:04.521Z,20.90
2023-02-19T01:26:36.168Z,18.85
2023-02-19T01:29:04.590Z,19.17
2023-02-19T01:31:32.754Z,19.00
2023-02-19T01:34:03.946Z,17.85
2023-02-19T01:36:33.951Z,18.40
2023-02-19T01:39:06.627Z,17.17
2023-02-19T01:41:40.087Z,17.35
2023-02-19T01:44:23.378Z,19.00
2023-02-19T01:46:52.794Z,18.87
2023-02-19T01:49:26.010Z,17.82
2023-02-19T01:52:07.701Z,18.20
2023-02-19T01:54:38.247Z,18.52
2023-02-19T01:57:11.136Z,18.73
2023-02-19T01:59:39.813Z,17.67
2023-02-19T02:02:08.573Z,18.42
2023-02-19T02:04:36.334Z,19.57
2023-02-19T02:07:11.271Z,23.40
2023-02-19T02:09:57.170Z,21.10
2023-02-19T02:14:52.590Z,18.12
2023-02-19T02:17:37.736Z,18.92
2023-02-19T02:20:17.362Z,21.85
2023-02-19T02:23:05.321Z,19.32
2023-02-19T02:26:03.320Z,19.50
2023-02-19T02:29:05.729Z,18.17
2023-02-19T02:31:53.243Z,17.77
2023-02-19T02:34:29.279Z,17.05
2023-02-19T02:36:58.541Z,17.20
2023-02-19T02:39:28.213Z,33.23
2023-02-19T02:42:16.619Z,19.00
2023-02-19T02:44:47.078Z,19.27
2023-02-19T02:47:16.929Z,21.07
2023-02-19T02:49:47.442Z,20.30
2023-02-19T02:52:19.047Z,24.57
2023-02-19T02:55:04.872Z,22.52
2023-02-19T02:57:32.849Z,23.00
2023-02-19T03:00:00.806Z,20.02
2023-02-19T03:02:31.441Z,17.40
2023-02-19T03:05:29.138Z,18.25
2023-02-19T03:08:11.276Z,16.97
2023-02-19T03:10:54.970Z,17.25
2023-02-19T03:13:53.776Z,19.20
2023-02-19T03:16:47.138Z,18.92
2023-02-19T03:19:19.133Z,17.98
2023-02-19T03:22:09.626Z,18.37
2023-02-19T03:25:01.403Z,18.30
2023-02-19T03:27:31.931Z,18.35
2023-02-19T03:30:06.483Z,16.82
2023-02-19T03:33:00.684Z,17.48
2023-02-19T03:35:31.713Z,15.60
2023-02-19T03:38:11.932Z,16.48
2023-02-19T03:40:57.303Z,16.15
2023-02-19T03:43:49.838Z,17.32
2023-02-19T03:46:22.670Z,16.67
2023-02-19T03:49:01.753Z,15.78
2023-02-19T03:51:44.505Z,16.02
2023-02-19T03:54:35.934Z,15.25
2023-02-19T03:57:33.405Z,15.32
2023-02-19T04:00:54.241Z,14.78
2023-02-19T04:03:52.312Z,15.25
2023-02-19T04:06:30.135Z,14.85
2023-02-19T04:09:03.485Z,13.85
2023-02-19T04:11:32.707Z,14.73
2023-02-19T04:14:16.547Z,16.52
2023-02-19T04:16:50.258Z,17.00
2023-02-19T04:19:21.292Z,16.27
2023-02-19T04:21:51.067Z,17.20
2023-02-19T04:24:35.857Z,14.98
2023-02-19T04:27:05.748Z,14.37
2023-02-19T04:29:33.314Z,13.60
2023-02-19T04:32:01.079Z,13.83
2023-02-19T04:34:28.944Z,14.65
2023-02-19T04:36:57.065Z,15.70
2023-02-19T04:39:24.818Z,15.40
2023-02-19T04:41:52.600Z,14.68
2023-02-19T04:44:20.471Z,16.45
2023-02-19T04:46:48.283Z,19.23
2023-02-19T04:49:16.120Z,17.57
2023-02-19T04:51:44.036Z,16.87
2023-02-19T04:54:11.630Z,17.40
2023-02-19T04:56:40.274Z,18.80
2023-02-19T04:59:08.092Z,19.40
2023-02-19T05:01:35.686Z,20.25
2023-02-19T05:04:04.560Z,20.65
2023-02-19T05:06:32.405Z,18.12
2023-02-19T05:09:00.295Z,15.53
2023-02-19T05:11:28.180Z,15.50
2023-02-19T05:13:55.899Z,13.58
2023-02-19T05:16:23.860Z,13.78
2023-02-19T05:18:51.360Z,13.70
2023-02-19T05:21:19.124Z,14.07
2023-02-19T05:23:46.781Z,15.38
2023-02-19T05:26:19.886Z,14.78
2023-02-19T05:28:51.056Z,15.83
2023-02-19T05:31:19.976Z,15.60
2023-02-19T05:33:50.202Z,15.40
2023-02-19T05:36:20.602Z,16.10
2023-02-19T05:38:55.875Z,15.23
2023-02-19T05:41:30.820Z,16.32
2023-02-19T05:44:05.186Z,16.32
2023-02-19T05:46:34.397Z,15.63
2023-02-19T05:49:03.193Z,16.62
2023-02-19T05:51:30.795Z,16.45
2023-02-19T05:53:58.485Z,16.07
2023-02-19T05:56:35.920Z,16.65
2023-02-19T05:59:09.166Z,16.57
2023-02-19T06:01:36.931Z,27.90
2023-02-19T06:04:05.486Z,23.50
2023-02-19T06:06:33.474Z,25.48
2023-02-19T06:09:01.379Z,28.87
2023-02-19T06:11:29.826Z,24.60
2023-02-19T06:13:57.686Z,29.42
2023-02-19T06:16:26.275Z,27.37
2023-02-19T06:18:54.134Z,26.05
2023-02-19T06:21:23.888Z,23.10
2023-02-19T06:24:01.478Z,23.38
2023-02-19T06:26:29.765Z,23.20
2023-02-19T06:28:57.634Z,26.20
2023-02-19T06:31:25.622Z,27.55
2023-02-19T06:33:55.327Z,43.45
2023-02-19T06:36:23.734Z,36.33
2023-02-19T06:38:52.249Z,34.43
2023-02-19T06:41:19.946Z,32.63
2023-02-19T06:43:47.556Z,30.80
2023-02-19T06:46:15.235Z,32.33
2023-02-19T06:48:44.826Z,34.20
2023-02-19T06:51:15.639Z,33.18
2023-02-19T06:53:43.437Z,33.53
2023-02-19T06:56:27.808Z,33.48
2023-02-19T06:59:02.340Z,33.48
2023-02-19T07:01:32.866Z,38.50
2023-02-19T07:04:01.755Z,40.70
2023-02-19T07:06:31.098Z,40.98
2023-02-19T07:09:00.008Z,42.48
2023-02-19T07:11:31.873Z,42.85
2023-02-19T07:14:02.506Z,44.63
2023-02-19T07:16:30.981Z,44.83
2023-02-19T07:19:14.576Z,48.08
2023-02-19T07:21:42.166Z,44.23
2023-02-19T07:24:10.616Z,40.48
2023-02-19T07:26:38.384Z,40.25
2023-02-19T07:29:07.055Z,39.35
2023-02-19T07:31:35.387Z,39.35
2023-02-19T07:34:05.013Z,32.60
2023-02-19T07:36:33.412Z,34.75
2023-02-19T07:39:02.030Z,28.23
2023-02-19T07:41:29.938Z,24.60
2023-02-19T07:43:58.749Z,28.35
2023-02-19T07:46:26.827Z,22.48
2023-02-19T07:48:54.586Z,26.40
2023-02-19T07:51:23.392Z,25.40
2023-02-19T07:53:51.831Z,21.95
2023-02-19T07:59:15.682Z,34.35
2023-02-19T08:02:04.453Z,33.55
2023-02-19T08:04:35.243Z,23.22
2023-02-19T08:07:04.842Z,15.72
2023-02-19T08:12:36.150Z,12.47
2023-02-19T08:15:08.020Z,37.88
2023-02-19T08:20:00.533Z,22.27
2023-02-19T08:22:28.003Z,13.32
2023-02-19T08:24:57.775Z,14.00
2023-02-19T08:27:28.508Z,31.10
2023-02-19T08:30:11.852Z,11.97
2023-02-19T08:32:43.679Z,15.93
2023-02-19T08:35:30.922Z,34.73
2023-02-19T08:37:59.074Z,25.85
2023-02-19T08:40:25.889Z,10.65
2023-02-19T08:42:53.886Z,18.35
2023-02-19T08:45:23.689Z,23.35
2023-02-19T08:47:51.600Z,10.63
2023-02-19T08:50:23.945Z,13.10
2023-02-19T08:52:54.206Z,14.43
2023-02-19T08:55:21.959Z,8.75
2023-02-19T08:57:51.078Z,14.07
2023-02-19T09:00:20.827Z,22.70
2023-02-19T09:02:49.372Z,8.63
2023-02-19T09:05:17.574Z,11.73
2023-02-19T09:07:45.489Z,9.08
2023-02-19T09:10:14.062Z,9.03
2023-02-19T09:12:42.256Z,17.75
2023-02-19T09:15:10.131Z,8.35
2023-02-19T09:17:38.564Z,16.15
2023-02-19T09:20:07.654Z,10.20
2023-02-19T09:22:35.412Z,7.42
2023-02-19T09:25:03.940Z,13.65
2023-02-19T09:27:31.758Z,17.82
2023-02-19T09:29:59.802Z,20.30
2023-02-19T09:32:30.889Z,9.38
2023-02-19T09:34:59.187Z,9.70
2023-02-19T09:37:28.102Z,8.28
2023-02-19T09:39:55.745Z,9.65
2023-02-19T09:42:29.740Z,10.03
2023-02-19T09:45:00.155Z,13.72
2023-02-19T09:47:33.058Z,8.98
2023-02-19T09:50:12.202Z,10.53
2023-02-19T09:52:45.464Z,9.55
2023-02-19T09:55:38.991Z,69.53
2023-02-19T10:01:56.030Z,7.60
2023-02-19T10:04:25.564Z,7.92
2023-02-19T10:07:09.524Z,8.38
2023-02-19T10:09:38.677Z,9.18
2023-02-19T10:12:17.864Z,10.38
2023-02-19T10:14:49.801Z,12.10
2023-02-19T10:17:28.795Z,10.63
2023-02-19T10:19:58.038Z,9.43
2023-02-19T10:22:25.805Z,17.15
2023-02-19T10:24:56.243Z,18.07
2023-02-19T10:27:30.758Z,27.27
2023-02-19T10:30:00.766Z,28.80
2023-02-19T10:32:29.306Z,26.48
2023-02-19T10:35:15.872Z,18.45
2023-02-19T10:37:49.280Z,18.75
2023-02-19T10:40:27.055Z,41.20
2023-02-19T10:43:08.887Z,18.17
2023-02-19T10:45:53.374Z,20.80
2023-02-19T10:48:27.174Z,17.07
2023-02-19T10:51:10.861Z,18.42
2023-02-19T10:56:35.655Z,18.25
2023-02-19T10:59:32.303Z,19.27
2023-02-19T11:02:07.094Z,16.07
2023-02-19T11:04:39.311Z,20.32
2023-02-19T11:07:17.333Z,17.70
2023-02-19T11:09:49.421Z,18.92
2023-02-19T11:12:24.726Z,36.40
2023-02-19T11:14:52.679Z,43.55
2023-02-19T11:17:32.104Z,37.90
2023-02-19T11:20:07.481Z,21.30
2023-02-19T11:25:18.553Z,66.95
2023-02-19T11:28:09.109Z,40.15
2023-02-19T11:30:43.497Z,74.55
2023-02-19T11:33:22.097Z,72.90
2023-02-19T11:36:14.861Z,28.07
2023-02-19T11:38:44.330Z,35.58
2023-02-19T11:41:36.026Z,44.13
2023-02-19T11:44:51.024Z,37.33
2023-02-19T11:47:57.161Z,28.40
2023-02-19T11:50:50.906Z,27.15
2023-02-19T11:53:37.841Z,23.92
2023-02-19T11:56:19.493Z,27.07
2023-02-19T11:59:15.242Z,34.18
2023-02-19T12:02:14.341Z,31.35
2023-02-19T12:05:21.348Z,34.20
2023-02-19T12:08:32.786Z,39.15
2023-02-19T12:11:37.349Z,52.53
2023-02-19T12:16:56.709Z,39.73
2023-02-19T12:19:39.084Z,36.68
2023-02-19T12:25:23.613Z,40.00
2023-02-19T12:28:02.847Z,42.20
2023-02-19T12:30:49.906Z,61.10
2023-02-19T12:34:05.698Z,58.00
2023-02-19T12:39:23.097Z,42.83
2023-02-19T12:42:33.900Z,35.58
2023-02-19T12:45:07.180Z,35.78
2023-02-19T12:47:39.118Z,42.20
2023-02-19T12:50:23.790Z,63.08
2023-02-19T12:53:04.610Z,64.70
2023-02-19T12:55:43.254Z,54.53
2023-02-19T12:58:18.998Z,56.85
2023-02-19T13:00:54.647Z,52.70
2023-02-19T13:03:35.288Z,44.83
2023-02-19T13:06:36.510Z,43.45
2023-02-19T13:09:14.749Z,42.67
2023-02-19T13:12:21.165Z,45.12
2023-02-19T13:15:19.859Z,51.95
2023-02-19T13:23:27.394Z,38.90
2023-02-19T13:29:05.820Z,35.63
2023-02-19T13:31:53.809Z,37.78
2023-02-19T13:34:48.559Z,38.78
2023-02-19T13:42:36.058Z,47.43
2023-02-19T13:45:06.542Z,44.75
2023-02-19T13:47:58.227Z,46.20
2023-02-19T13:50:32.843Z,49.70
2023-02-19T13:55:51.932Z,36.00
2023-02-19T13:58:37.319Z,37.23
2023-02-19T14:03:57.808Z,36.63
2023-02-19T14:06:26.397Z,41.37
2023-02-19T14:08:59.680Z,47.15
2023-02-19T14:13:56.038Z,52.78
2023-02-19T14:16:40.599Z,52.78
2023-02-19T14:21:40.121Z,53.85
2023-02-19T14:24:14.666Z,56.70
2023-02-19T14:26:42.959Z,54.75
2023-02-19T14:29:14.128Z,53.35
2023-02-19T14:31:45.531Z,52.80
2023-02-19T14:37:01.311Z,45.98
2023-02-19T14:42:22.084Z,48.42
2023-02-19T14:44:59.486Z,44.42
2023-02-19T14:47:37.033Z,51.25
2023-02-19T14:50:15.793Z,49.38
2023-02-19T14:52:49.899Z,49.65
2023-02-19T14:57:49.282Z,46.60
2023-02-19T15:00:25.940Z,33.95
2023-02-19T15:05:27.694Z,29.45
2023-02-19T15:08:03.026Z,28.15
2023-02-19T15:13:10.938Z,28.98
2023-02-19T15:15:43.127Z,30.35
2023-02-19T15:18:24.233Z,33.18
2023-02-19T15:21:00.903Z,32.48
2023-02-19T15:23:31.336Z,30.02
2023-02-19T15:25:59.858Z,33.85
2023-02-19T15:28:32.439Z,34.45
2023-02-19T15:31:05.443Z,26.33
2023-02-19T15:33:34.539Z,25.92
2023-02-19T15:36:11.110Z,28.32
2023-02-19T15:38:38.903Z,30.50
2023-02-19T15:41:07.074Z,27.42
2023-02-19T15:43:43.976Z,23.15
2023-02-19T15:46:21.772Z,24.85
2023-02-19T15:48:57.870Z,52.75
2023-02-19T15:53:56.348Z,19.43
2023-02-19T15:56:33.775Z,21.40
2023-02-19T15:59:28.720Z,20.68
2023-02-19T16:01:57.656Z,29.98
2023-02-19T16:04:25.284Z,31.93
2023-02-19T16:07:01.102Z,20.95
2023-02-19T16:09:39.911Z,14.78
2023-02-19T16:12:23.831Z,14.30
2023-02-19T16:17:25.613Z,13.30
2023-02-19T16:20:00.850Z,13.13
2023-02-19T16:22:33.353Z,13.90
2023-02-19T16:25:05.233Z,11.48
2023-02-19T16:27:41.319Z,11.80
2023-02-19T16:32:47.003Z,11.73
2023-02-19T16:35:36.211Z,15.83
2023-02-19T16:40:50.481Z,9.28
2023-02-19T16:45:55.786Z,11.38
2023-02-19T16:48:24.714Z,14.55
2023-02-19T16:50:51.585Z,14.07
2023-02-19T16:53:24.941Z,14.25
2023-02-19T16:55:52.760Z,13.35
2023-02-19T16:58:21.026Z,12.23
2023-02-19T17:00:52.310Z,9.23
2023-02-19T17:05:50.258Z,5.85
2023-02-19T17:08:36.764Z,11.68
2023-02-19T17:13:30.874Z,11.88
2023-02-19T17:15:58.937Z,11.80
2023-02-19T17:18:27.094Z,9.40
2023-02-19T17:21:12.441Z,16.15
2023-02-19T17:23:41.705Z,13.43
2023-02-19T17:26:16.854Z,17.87
2023-02-19T17:31:12.168Z,12.53
2023-02-19T17:36:07.901Z,7.92
2023-02-19T17:41:02.332Z,16.87
2023-02-19T17:43:30.637Z,34.40
2023-02-19T17:45:58.237Z,14.55
2023-02-19T17:48:26.414Z,13.08
2023-02-19T17:50:54.380Z,10.53
2023-02-19T17:53:22.334Z,5.72
2023-02-19T17:55:50.077Z,6.22
2023-02-19T17:58:20.155Z,7.53
2023-02-19T18:03:14.008Z,8.03
2023-02-19T18:05:41.990Z,10.88
2023-02-19T18:08:08.930Z,10.38
2023-02-19T18:10:36.975Z,10.15
2023-02-19T18:15:31.373Z,11.28
2023-02-19T18:20:28.227Z,14.25
2023-02-19T18:22:57.503Z,13.90
2023-02-19T18:25:41.098Z,13.08
2023-02-19T18:28:07.990Z,13.62
2023-02-19T18:30:36.370Z,16.15
2023-02-19T18:33:06.369Z,15.90
2023-02-19T18:35:37.669Z,6.92
2023-02-19T18:38:06.372Z,3.00
2023-02-19T18:40:34.249Z,2.65
2023-02-19T18:43:02.036Z,4.05
2023-02-19T18:45:31.716Z,4.17
2023-02-19T18:47:59.581Z,4.90
2023-02-19T18:50:27.295Z,2.40
2023-02-19T18:52:55.143Z,4.53
2023-02-19T18:55:23.098Z,4.53
2023-02-19T19:00:22.462Z,3.20
2023-02-19T19:02:57.026Z,2.30
2023-02-19T19:05:25.821Z,2.27
2023-02-19T19:07:55.927Z,2.47
2023-02-19T19:10:24.397Z,3.77
2023-02-19T19:12:51.720Z,4.15
2023-02-19T19:15:20.776Z,3.40
2023-02-19T19:17:48.673Z,2.90
2023-02-19T19:22:50.055Z,6.62
2023-02-19T19:27:46.180Z,6.37
2023-02-19T19:30:14.749Z,7.00
2023-02-19T19:32:42.634Z,5.58
2023-02-19T19:35:11.178Z,9.38
2023-02-19T19:40:06.276Z,6.85
2023-02-19T19:45:00.763Z,3.45
2023-02-19T19:47:28.899Z,3.25
2023-02-19T19:49:56.773Z,3.62
2023-02-19T19:52:24.496Z,3.40
2023-02-19T19:54:53.691Z,4.87
2023-02-19T19:57:21.691Z,5.22
2023-02-19T20:02:18.958Z,6.92
2023-02-19T20:07:13.191Z,8.28
2023-02-19T20:12:20.080Z,5.67
2023-02-19T20:14:48.463Z,3.90
2023-02-19T20:23:51.799Z,3.80
2023-02-19T20:26:51.071Z,3.95
2023-02-19T20:29:39.865Z,5.90
2023-02-19T20:32:14.895Z,4.12
2023-02-19T20:37:40.146Z,2.62
2023-02-19T20:42:36.493Z,2.70
2023-02-19T20:45:05.752Z,3.22
2023-02-19T20:47:33.547Z,2.60
2023-02-19T20:50:01.741Z,2.40
2023-02-19T20:52:29.587Z,2.80
2023-02-19T20:54:57.805Z,5.60
2023-02-19T20:57:27.940Z,2.92
2023-02-19T20:59:55.924Z,1.98
2023-02-19T21:02:28.421Z,2.20
2023-02-19T21:04:57.124Z,3.08
2023-02-19T21:07:26.728Z,3.00
2023-02-19T21:09:54.579Z,2.27
2023-02-19T21:12:22.607Z,2.92
2023-02-19T21:14:50.379Z,4.85
2023-02-19T21:17:18.449Z,5.12
2023-02-19T21:19:49.254Z,5.55
2023-02-19T21:22:17.206Z,3.17
2023-02-19T21:24:46.895Z,3.47
2023-02-19T21:27:15.136Z,3.58
2023-02-19T21:29:42.875Z,7.60
2023-02-19T21:34:37.670Z,11.78
2023-02-19T21:39:33.083Z,3.47
2023-02-19T21:42:02.014Z,4.67
2023-02-19T21:44:29.544Z,2.95
2023-02-19T21:46:57.618Z,2.08
2023-02-19T21:49:26.662Z,2.87
2023-02-19T21:51:54.276Z,3.02
2023-02-19T21:54:24.959Z,2.35
2023-02-19T21:56:54.546Z,2.90
2023-02-19T21:59:23.025Z,2.60
2023-02-19T22:01:50.930Z,2.52
2023-02-19T22:04:23.765Z,2.55
2023-02-19T22:06:56.579Z,2.83
2023-02-19T22:09:24.425Z,2.37
2023-02-19T22:14:17.952Z,2.33
2023-02-19T22:16:45.735Z,2.55
2023-02-19T22:19:13.348Z,2.37
2023-02-19T22:24:18.407Z,2.70
2023-02-19T22:26:49.501Z,3.02
2023-02-19T22:29:17.506Z,2.50
2023-02-19T22:31:45.474Z,3.02
2023-02-19T22:34:15.091Z,4.78
2023-02-19T22:36:43.664Z,3.00
2023-02-19T22:39:22.723Z,3.05
2023-02-19T22:41:51.251Z,3.62
2023-02-19T22:44:19.363Z,6.35
2023-02-19T22:46:58.661Z,6.12
2023-02-19T22:49:26.684Z,2.47
2023-02-19T22:52:07.786Z,4.17
2023-02-19T22:57:01.637Z,3.52
2023-02-19T23:01:56.360Z,3.02
2023-02-19T23:04:25.669Z,2.10
2023-02-19T23:06:52.671Z,2.27
2023-02-19T23:09:24.689Z,2.00
2023-02-19T23:11:53.749Z,1.70
2023-02-19T23:14:25.993Z,1.90
2023-02-19T23:16:53.351Z,1.67
2023-02-19T23:21:48.118Z,1.50
2023-02-19T23:24:16.925Z,1.30
2023-02-19T23:26:47.451Z,1.50
2023-02-19T23:31:41.559Z,1.05
2023-02-19T23:34:10.232Z,1.45
2023-02-19T23:36:47.331Z,1.20
2023-02-19T23:39:17.568Z,0.90
2023-02-19T23:41:52.546Z,1.05
2023-02-19T23:44:22.785Z,0.70
2023-02-19T23:46:51.612Z,0.90
2023-02-19T23:49:19.527Z,0.90
2023-02-19T23:51:47.424Z,0.90
2023-02-19T23:54:15.367Z,1.00
2023-02-19T23:56:43.269Z,0.85
2023-02-19T23:59:10.942Z,0.50
